Time;durP1;ratioP1;P1;durP2;ratioP2;P2;SDS_P1;SDS_P2;PMS_P1;PMS_P2;Temp;Humidity;BMP_temperature;BMP_pressure;BME280_temperature;BME280_humidity;BME280_pressure;Samples;Min_cycle;Max_cycle;Signal;HPM_P1;HPM_P2
2022/10/03 00:01:49;;;;;;;;;;;10.60;99.90;;;;;;4940377;28;19917;-78
2022/10/03 00:05:01;;;;;;;;;;;10.60;99.90;;;;;;4985596;28;19949;-77
2022/10/03 00:08:00;;;;;;;;;;;10.50;99.90;;;;;;5004086;28;19937;-77
2022/10/03 00:10:51;;;;;;;;;;;10.50;99.90;;;;;;4999616;28;19910;-77
2022/10/03 00:13:24;;;;;;;;;;;10.50;99.90;;;;;;4982581;28;19981;-78
2022/10/03 00:16:12;;;;;;;;;;;10.40;99.90;;;;;;4983030;28;19957;-77
2022/10/03 00:18:44;;;;;;;;;;;10.40;99.90;;;;;;4982471;28;20164;-78
2022/10/03 00:21:22;;;;;;;;;;;10.40;99.90;;;;;;4982963;28;19928;-77
2022/10/03 00:24:01;;;;;;;;;;;10.40;99.90;;;;;;4998749;28;19918;-77
2022/10/03 00:26:32;;;;;;;;;;;10.30;99.90;;;;;;4981725;28;19911;-77
2022/10/03 00:29:17;;;;;;;;;;;10.30;99.90;;;;;;4983359;28;19918;-78
2022/10/03 00:32:00;;;;;;;;;;;10.30;99.90;;;;;;4983517;28;19957;-77
2022/10/03 00:34:41;;;;;;;;;;;10.30;99.90;;;;;;4982615;28;19911;-78
2022/10/03 00:37:23;;;;;;;;;;;10.30;99.90;;;;;;4982876;28;20227;-77
2022/10/03 00:39:54;;;;;;;;;;;10.30;99.90;;;;;;4982327;28;19918;-78
2022/10/03 00:42:35;;;;;;;;;;;10.30;99.90;;;;;;4992900;28;19909;-78
2022/10/03 00:45:10;;;;;;;;;;;10.30;99.90;;;;;;5006358;28;19910;-77
2022/10/03 00:48:00;;;;;;;;;;;10.30;99.90;;;;;;5020651;28;19914;-77
2022/10/03 00:50:50;;;;;;;;;;;10.30;99.90;;;;;;5006185;28;19909;-77
2022/10/03 00:53:42;;;;;;;;;;;10.30;99.90;;;;;;5005381;28;19932;-78
2022/10/03 00:56:29;;;;;;;;;;;10.30;99.90;;;;;;5004238;28;20012;-78
2022/10/03 00:59:11;;;;;;;;;;;10.30;99.90;;;;;;4994905;28;19952;-77
2022/10/03 01:01:44;;;;;;;;;;;10.30;99.90;;;;;;4985522;28;20109;-77
2022/10/03 01:04:29;;;;;;;;;;;10.20;99.90;;;;;;4985324;28;19973;-78
2022/10/03 01:07:04;;;;;;;;;;;10.20;99.90;;;;;;4998447;28;19985;-77
2022/10/03 01:09:40;;;;;;;;;;;10.20;99.90;;;;;;5020743;28;19914;-77
2022/10/03 01:12:16;;;;;;;;;;;10.20;99.90;;;;;;5003457;28;19909;-77
2022/10/03 01:14:56;;;;;;;;;;;10.10;99.90;;;;;;5020091;28;19917;-77
2022/10/03 01:17:37;;;;;;;;;;;10.10;99.90;;;;;;5019442;28;19910;-78
2022/10/03 01:20:25;;;;;;;;;;;10.10;99.90;;;;;;5004422;28;19921;-77
2022/10/03 01:23:09;;;;;;;;;;;10.10;99.90;;;;;;5005815;28;19948;-77
2022/10/03 01:25:50;;;;;;;;;;;10.00;99.90;;;;;;5004456;28;19952;-78
2022/10/03 01:31:09;;;;;;;;;;;10.00;99.90;;;;;;5018405;28;19917;-77
2022/10/03 01:33:47;;;;;;;;;;;10.00;99.90;;;;;;5020524;28;19910;-77
2022/10/03 01:36:31;;;;;;;;;;;10.00;99.90;;;;;;5003746;28;19917;-78
2022/10/03 01:39:05;;;;;;;;;;;10.00;99.90;;;;;;5020032;28;20148;-77
2022/10/03 01:41:32;;;;;;;;;;;9.90;99.90;;;;;;5019435;28;19916;-78
2022/10/03 01:44:15;;;;;;;;;;;9.90;99.90;;;;;;5004853;28;19913;-77
2022/10/03 01:46:42;;;;;;;;;;;9.90;99.90;;;;;;5003817;28;19957;-77
2022/10/03 01:49:29;;;;;;;;;;;9.90;99.90;;;;;;4987851;28;20141;-78
2022/10/03 01:52:22;;;;;;;;;;;9.80;99.90;;;;;;5005048;28;19918;-77
2022/10/03 01:55:09;;;;;;;;;;;9.80;99.90;;;;;;4987041;28;19909;-78
2022/10/03 01:57:39;;;;;;;;;;;9.80;99.90;;;;;;5003419;28;19920;-78
2022/10/03 02:00:19;;;;;;;;;;;9.80;99.90;;;;;;4988092;28;19918;-77
2022/10/03 02:03:18;;;;;;;;;;;9.80;99.90;;;;;;5006485;28;19921;-78
2022/10/03 02:06:05;;;;;;;;;;;9.80;99.90;;;;;;5024823;28;19910;-78
2022/10/03 02:08:51;;;;;;;;;;;9.80;99.90;;;;;;4988438;28;19989;-78
2022/10/03 02:11:30;;;;;;;;;;;9.80;99.90;;;;;;4988185;28;19952;-77
2022/10/03 02:13:59;;;;;;;;;;;9.80;99.90;;;;;;4968457;28;19916;-77
2022/10/03 02:16:58;;;;;;;;;;;9.80;99.90;;;;;;4985374;28;19918;-77
2022/10/03 02:19:29;;;;;;;;;;;9.80;99.90;;;;;;4985240;28;19987;-77
2022/10/03 02:21:56;;;;;;;;;;;9.80;99.90;;;;;;4985362;28;19918;-77
2022/10/03 02:24:34;;;;;;;;;;;9.80;99.90;;;;;;4984865;28;19949;-77
2022/10/03 02:27:23;;;;;;;;;;;9.80;99.90;;;;;;4993181;28;19922;-77
2022/10/03 02:30:02;;;;;;;;;;;9.80;99.90;;;;;;5003450;28;19910;-77
2022/10/03 02:32:43;;;;;;;;;;;9.80;99.90;;;;;;4994003;28;19910;-77
2022/10/03 02:35:34;;;;;;;;;;;9.80;99.90;;;;;;4999947;28;19917;-77
2022/10/03 02:38:12;;;;;;;;;;;9.80;99.90;;;;;;5011469;28;20120;-77
2022/10/03 02:40:59;;;;;;;;;;;9.80;99.90;;;;;;5004389;28;19932;-77
2022/10/03 02:43:43;;;;;;;;;;;9.80;99.90;;;;;;4987135;28;19980;-77
2022/10/03 02:46:41;;;;;;;;;;;9.80;99.90;;;;;;4999535;28;20205;-77
2022/10/03 02:49:36;;;;;;;;;;;9.80;99.90;;;;;;4984586;28;19914;-77
2022/10/03 02:52:31;;;;;;;;;;;9.80;99.90;;;;;;4982886;28;19917;-77
2022/10/03 02:55:19;;;;;;;;;;;9.90;99.90;;;;;;4989944;28;20139;-77
2022/10/03 02:58:22;;;;;;;;;;;9.80;99.90;;;;;;4990315;28;20270;-77
2022/10/03 03:01:00;;;;;;;;;;;9.80;99.90;;;;;;5002401;28;19913;-77
2022/10/03 03:03:47;;;;;;;;;;;9.80;99.90;;;;;;4993173;28;19918;-77
2022/10/03 03:06:53;;;;;;;;;;;9.90;99.90;;;;;;4983163;28;19910;-77
2022/10/03 03:09:28;;;;;;;;;;;9.80;99.90;;;;;;4994012;28;19913;-77
2022/10/03 03:12:22;;;;;;;;;;;9.80;99.90;;;;;;5002420;28;19910;-77
2022/10/03 03:15:27;;;;;;;;;;;9.80;99.90;;;;;;5015513;28;19917;-77
2022/10/03 03:18:05;;;;;;;;;;;9.80;99.90;;;;;;5018135;28;19918;-77
2022/10/03 03:20:39;;;;;;;;;;;9.70;99.90;;;;;;5017754;28;19910;-77
2022/10/03 03:23:27;;;;;;;;;;;9.70;99.90;;;;;;5018434;28;20159;-77
2022/10/03 03:26:14;;;;;;;;;;;9.70;99.90;;;;;;5002579;28;20196;-78
2022/10/03 03:28:57;;;;;;;;;;;9.70;99.90;;;;;;5003283;28;19914;-77
2022/10/03 03:31:29;;;;;;;;;;;9.60;99.90;;;;;;5003199;28;19910;-77
2022/10/03 03:34:21;;;;;;;;;;;9.50;99.90;;;;;;4987932;28;20033;-77
2022/10/03 03:37:05;;;;;;;;;;;9.50;99.90;;;;;;4982469;28;20224;-78
2022/10/03 03:39:38;;;;;;;;;;;9.50;99.90;;;;;;5000412;28;20205;-78
2022/10/03 03:42:36;;;;;;;;;;;9.50;99.90;;;;;;4985947;28;19910;-77
2022/10/03 03:45:07;;;;;;;;;;;9.50;99.90;;;;;;5001205;28;19952;-77
2022/10/03 03:47:53;;;;;;;;;;;9.40;99.90;;;;;;5017554;28;20180;-77
2022/10/03 03:50:51;;;;;;;;;;;9.40;99.90;;;;;;5001400;28;19952;-77
2022/10/03 03:53:39;;;;;;;;;;;9.40;99.90;;;;;;5001598;28;19910;-77
2022/10/03 03:56:25;;;;;;;;;;;9.40;99.90;;;;;;5001784;28;20090;-77
2022/10/03 03:59:24;;;;;;;;;;;9.30;99.90;;;;;;5002155;28;19909;-77
2022/10/03 04:02:05;;;;;;;;;;;9.30;99.90;;;;;;5002472;28;19910;-77
2022/10/03 04:05:04;;;;;;;;;;;9.30;99.90;;;;;;5001607;28;19914;-77
2022/10/03 04:07:48;;;;;;;;;;;9.30;99.90;;;;;;5001915;28;19921;-77
2022/10/03 04:10:29;;;;;;;;;;;9.30;99.90;;;;;;5001875;28;20213;-77
2022/10/03 04:13:09;;;;;;;;;;;9.30;99.90;;;;;;4997596;28;19918;-77
2022/10/03 04:16:09;;;;;;;;;;;9.30;99.90;;;;;;4998338;28;20094;-77
2022/10/03 04:19:01;;;;;;;;;;;9.30;99.90;;;;;;4993917;28;19918;-77
2022/10/03 04:21:39;;;;;;;;;;;9.20;99.90;;;;;;4989142;28;20113;-77
2022/10/03 04:24:39;;;;;;;;;;;9.20;99.90;;;;;;4973374;28;19918;-77
2022/10/03 04:27:12;;;;;;;;;;;9.20;99.90;;;;;;5005582;28;19918;-77
2022/10/03 04:29:58;;;;;;;;;;;9.20;99.90;;;;;;5005142;28;19985;-77
2022/10/03 04:32:46;;;;;;;;;;;9.20;99.90;;;;;;5006428;28;20032;-77
2022/10/03 04:35:33;;;;;;;;;;;9.20;99.90;;;;;;4986908;28;20191;-77
2022/10/03 04:38:33;;;;;;;;;;;9.20;99.90;;;;;;5001428;28;19914;-77
2022/10/03 04:41:26;;;;;;;;;;;9.20;99.90;;;;;;4986830;28;19917;-77
2022/10/03 04:44:11;;;;;;;;;;;9.10;99.90;;;;;;4987031;28;19921;-77
2022/10/03 04:46:57;;;;;;;;;;;9.10;99.90;;;;;;4997023;28;20260;-77
2022/10/03 04:49:29;;;;;;;;;;;9.10;99.90;;;;;;5004891;28;19918;-77
2022/10/03 04:51:59;;;;;;;;;;;9.00;99.90;;;;;;5004950;28;19917;-77
2022/10/03 04:54:25;;;;;;;;;;;9.00;99.90;;;;;;4972998;28;19947;-76
2022/10/03 04:57:33;;;;;;;;;;;9.00;99.90;;;;;;5005615;28;20162;-77
2022/10/03 05:00:27;;;;;;;;;;;9.00;99.90;;;;;;5004942;28;19968;-77
2022/10/03 05:03:27;;;;;;;;;;;9.00;99.90;;;;;;5004677;28;19909;-77
2022/10/03 05:06:27;;;;;;;;;;;8.90;99.90;;;;;;5004672;28;19910;-77
2022/10/03 05:09:11;;;;;;;;;;;9.00;99.90;;;;;;5005662;28;19914;-77
2022/10/03 05:11:42;;;;;;;;;;;8.90;99.90;;;;;;5005710;28;19976;-77
2022/10/03 05:14:23;;;;;;;;;;;8.90;99.90;;;;;;5004422;28;19910;-77
2022/10/03 05:16:56;;;;;;;;;;;8.80;99.90;;;;;;5004830;28;19976;-77
2022/10/03 05:20:03;;;;;;;;;;;8.90;99.90;;;;;;5020774;28;19980;-77
2022/10/03 05:22:36;;;;;;;;;;;8.90;99.90;;;;;;5042688;28;19972;-77
2022/10/03 05:25:20;;;;;;;;;;;8.90;99.90;;;;;;5008812;28;19917;-77
2022/10/03 05:27:58;;;;;;;;;;;8.90;99.90;;;;;;5003334;28;19936;-77
2022/10/03 05:30:52;;;;;;;;;;;8.90;99.90;;;;;;5004767;28;19933;-77
2022/10/03 05:33:39;;;;;;;;;;;9.00;99.90;;;;;;5005094;28;19910;-77
2022/10/03 05:36:07;;;;;;;;;;;9.00;99.90;;;;;;5002837;28;19918;-77
2022/10/03 05:38:45;;;;;;;;;;;9.10;99.90;;;;;;5003896;28;19913;-77
2022/10/03 05:41:21;;;;;;;;;;;9.10;99.90;;;;;;5004528;28;19909;-77
2022/10/03 05:44:16;;;;;;;;;;;9.10;99.90;;;;;;4987369;28;20231;-77
2022/10/03 05:46:48;;;;;;;;;;;9.10;99.90;;;;;;5002945;28;19910;-77
2022/10/03 05:50:09;;;;;;;;;;;9.10;99.90;;;;;;5004554;28;19957;-77
2022/10/03 05:53:03;;;;;;;;;;;9.10;99.90;;;;;;4980280;28;19917;-77
2022/10/03 05:55:47;;;;;;;;;;;9.20;99.90;;;;;;5005651;28;19909;-77
2022/10/03 05:58:32;;;;;;;;;;;9.20;99.90;;;;;;5018338;28;19914;-77
2022/10/03 06:01:48;;;;;;;;;;;9.30;99.90;;;;;;5003624;28;19910;-77
2022/10/03 06:04:41;;;;;;;;;;;9.30;99.90;;;;;;5024412;28;19916;-77
2022/10/03 06:07:19;;;;;;;;;;;9.30;99.90;;;;;;5041681;28;20204;-77
2022/10/03 06:10:24;;;;;;;;;;;9.40;99.90;;;;;;5010193;28;20220;-77
2022/10/03 06:13:02;;;;;;;;;;;9.30;99.90;;;;;;5004404;28;19957;-77
2022/10/03 06:15:54;;;;;;;;;;;9.40;99.90;;;;;;5002314;28;19910;-77
2022/10/03 06:18:45;;;;;;;;;;;9.50;99.90;;;;;;5003781;28;20110;-77
2022/10/03 06:21:40;;;;;;;;;;;9.50;99.90;;;;;;4989965;28;19956;-77
2022/10/03 06:24:28;;;;;;;;;;;9.60;99.90;;;;;;4981162;28;19910;-77
2022/10/03 06:27:15;;;;;;;;;;;9.60;99.90;;;;;;4998758;28;19914;-77
2022/10/03 06:30:02;;;;;;;;;;;9.70;99.90;;;;;;4995429;28;20254;-77
2022/10/03 06:32:37;;;;;;;;;;;9.70;99.90;;;;;;5003195;28;20120;-77
2022/10/03 06:35:23;;;;;;;;;;;9.80;99.90;;;;;;5003779;28;20205;-77
2022/10/03 06:38:06;;;;;;;;;;;9.90;99.90;;;;;;4971353;28;19913;-77
2022/10/03 06:41:00;;;;;;;;;;;9.90;99.90;;;;;;5003500;28;19974;-77
2022/10/03 06:43:30;;;;;;;;;;;10.00;99.90;;;;;;5002485;28;19956;-77
2022/10/03 06:46:11;;;;;;;;;;;10.10;99.90;;;;;;5003082;28;19940;-77
2022/10/03 06:48:48;;;;;;;;;;;10.10;99.90;;;;;;5003445;28;20228;-77
2022/10/03 06:51:23;;;;;;;;;;;10.10;99.90;;;;;;4997402;28;19910;-77
2022/10/03 06:53:54;;;;;;;;;;;10.20;99.90;;;;;;4999680;28;19910;-77
2022/10/03 06:56:32;;;;;;;;;;;10.20;99.90;;;;;;5004972;28;19926;-77
2022/10/03 06:59:42;;;;;;;;;;;10.30;99.90;;;;;;5004111;28;19910;-77
2022/10/03 07:02:45;;;;;;;;;;;10.30;99.90;;;;;;4996492;28;19956;-77
2022/10/03 07:05:59;;;;;;;;;;;10.30;99.90;;;;;;5001578;28;19947;-76
2022/10/03 07:08:46;;;;;;;;;;;10.40;99.90;;;;;;5008632;28;19928;-77
2022/10/03 07:11:33;;;;;;;;;;;10.40;99.90;;;;;;5002700;28;20911;-77
2022/10/03 07:14:08;;;;;;;;;;;10.40;99.90;;;;;;4986645;28;19977;-77
2022/10/03 07:16:56;;;;;;;;;;;10.40;99.90;;;;;;4983366;28;19910;-78
2022/10/03 07:19:57;;;;;;;;;;;10.50;99.90;;;;;;5015610;28;19918;-77
2022/10/03 07:22:46;;;;;;;;;;;10.50;99.90;;;;;;5002695;28;19910;-77
2022/10/03 07:25:30;;;;;;;;;;;10.50;99.90;;;;;;4992616;28;19910;-77
2022/10/03 07:28:23;;;;;;;;;;;10.50;99.90;;;;;;4983361;28;19937;-77
2022/10/03 07:31:12;;;;;;;;;;;10.50;99.90;;;;;;4986789;28;19909;-77
2022/10/03 07:34:09;;;;;;;;;;;10.50;99.90;;;;;;5002108;28;20109;-77
2022/10/03 07:40:27;;;;;;;;;;;10.70;99.90;;;;;;5002003;28;19914;-77
2022/10/03 07:43:14;;;;;;;;;;;10.70;99.90;;;;;;5001167;28;19980;-77
2022/10/03 07:46:05;;;;;;;;;;;10.80;99.90;;;;;;4999937;28;19910;-78
2022/10/03 07:49:02;;;;;;;;;;;10.80;99.90;;;;;;5003149;28;19948;-77
2022/10/03 07:51:34;;;;;;;;;;;10.90;99.90;;;;;;5002767;28;19909;-77
2022/10/03 07:54:02;;;;;;;;;;;11.00;99.90;;;;;;4990378;28;19918;-77
2022/10/03 07:56:56;;;;;;;;;;;11.00;99.90;;;;;;4987884;28;19918;-78
2022/10/03 07:59:40;;;;;;;;;;;11.20;99.90;;;;;;5002585;28;20105;-77
2022/10/03 08:02:31;;;;;;;;;;;11.30;99.90;;;;;;4989425;28;19910;-77
2022/10/03 08:05:42;;;;;;;;;;;11.40;99.90;;;;;;5038844;23;19961;-75
2022/10/03 08:08:19;;;;;;;;;;;11.50;99.90;;;;;;5013817;28;19913;-75
2022/10/03 08:11:24;;;;;;;;;;;11.60;99.90;;;;;;5005241;28;20144;-75
2022/10/03 08:14:14;;;;;;;;;;;11.70;99.90;;;;;;5003237;28;19917;-75
2022/10/03 08:16:51;;;;;;;;;;;11.70;99.90;;;;;;5005767;28;19917;-75
2022/10/03 08:19:26;;;;;;;;;;;11.80;99.90;;;;;;5021469;28;19910;-76
2022/10/03 08:22:04;;;;;;;;;;;11.80;99.90;;;;;;5021984;28;19917;-76
2022/10/03 08:24:34;;;;;;;;;;;11.90;99.90;;;;;;5005805;28;20239;-76
2022/10/03 08:27:31;;;;;;;;;;;11.90;99.90;;;;;;5010634;28;19917;-75
2022/10/03 08:30:13;;;;;;;;;;;12.00;99.90;;;;;;5026075;28;19913;-75
2022/10/03 08:32:56;;;;;;;;;;;12.10;99.90;;;;;;5026445;28;19917;-76
2022/10/03 08:35:40;;;;;;;;;;;12.10;99.90;;;;;;5024433;28;19916;-75
2022/10/03 08:38:20;;;;;;;;;;;12.30;99.90;;;;;;5025896;28;20183;-74
2022/10/03 08:41:03;;;;;;;;;;;12.60;99.90;;;;;;5025766;28;19989;-74
2022/10/03 08:43:31;;;;;;;;;;;12.80;99.90;;;;;;5007508;28;19910;-74
2022/10/03 08:46:18;;;;;;;;;;;12.90;99.90;;;;;;5025534;28;19940;-70
2022/10/03 08:49:16;;;;;;;;;;;13.00;99.90;;;;;;5024246;28;20136;-70
2022/10/03 08:51:51;;;;;;;;;;;13.10;99.90;;;;;;5024550;28;19909;-70
2022/10/03 08:54:35;;;;;;;;;;;13.10;99.90;;;;;;5023796;28;19916;-70
2022/10/03 08:57:09;;;;;;;;;;;13.20;99.90;;;;;;5025099;28;19910;-70
2022/10/03 08:59:40;;;;;;;;;;;13.30;99.90;;;;;;5024880;28;19941;-70
2022/10/03 09:02:33;;;;;;;;;;;13.20;99.90;;;;;;5025115;28;19928;-70
2022/10/03 09:05:04;;;;;;;;;;;13.20;99.90;;;;;;5023928;28;19921;-70
2022/10/03 09:07:36;;;;;;;;;;;13.10;99.90;;;;;;5024908;28;19914;-68
2022/10/03 09:10:36;;;;;;;;;;;13.10;99.90;;;;;;5024949;28;20231;-69
2022/10/03 09:13:40;;;;;;;;;;;13.10;99.90;;;;;;5024113;28;19909;-67
2022/10/03 09:16:43;;;;;;;;;;;13.20;99.90;;;;;;5024067;28;20105;-66
2022/10/03 09:19:34;;;;;;;;;;;13.40;99.90;;;;;;5024513;28;19917;-67
2022/10/03 09:22:21;;;;;;;;;;;13.40;99.90;;;;;;5025099;28;19980;-67
2022/10/03 09:25:15;;;;;;;;;;;13.40;99.90;;;;;;5004899;28;19910;-67
2022/10/03 09:28:19;;;;;;;;;;;13.30;99.90;;;;;;5001385;28;19976;-67
2022/10/03 09:31:20;;;;;;;;;;;13.20;99.90;;;;;;5024460;28;19923;-67
2022/10/03 09:34:03;;;;;;;;;;;13.20;99.90;;;;;;5023226;28;20112;-68
2022/10/03 09:36:53;;;;;;;;;;;13.20;99.90;;;;;;5024065;28;19924;-67
2022/10/03 09:39:31;;;;;;;;;;;13.20;99.90;;;;;;5023097;28;19909;-68
2022/10/03 09:42:17;;;;;;;;;;;13.20;99.90;;;;;;5024398;28;19913;-67
2022/10/03 09:44:43;;;;;;;;;;;13.10;99.90;;;;;;5022875;28;19918;-67
2022/10/03 09:47:21;;;;;;;;;;;13.20;99.90;;;;;;5023815;28;20275;-71
2022/10/03 09:50:06;;;;;;;;;;;13.40;99.90;;;;;;5022971;28;20219;-71
2022/10/03 09:52:52;;;;;;;;;;;13.50;99.90;;;;;;5024274;28;19921;-71
2022/10/03 09:55:32;;;;;;;;;;;13.70;99.90;;;;;;5004690;28;19918;-71
2022/10/03 09:58:14;;;;;;;;;;;13.60;99.90;;;;;;5003743;28;19932;-71
2022/10/03 10:01:01;;;;;;;;;;;13.50;99.90;;;;;;5023986;28;19917;-71
2022/10/03 10:03:41;;;;;;;;;;;13.50;99.90;;;;;;5007497;28;19909;-71
2022/10/03 10:06:12;;;;;;;;;;;13.50;99.90;;;;;;5038592;28;20139;-71
2022/10/03 10:08:40;;;;;;;;;;;13.60;99.90;;;;;;5038116;28;19920;-71
2022/10/03 10:11:25;;;;;;;;;;;13.70;99.90;;;;;;5024121;28;19917;-71
2022/10/03 10:14:16;;;;;;;;;;;13.80;99.90;;;;;;5038464;28;19917;-70
2022/10/03 10:17:03;;;;;;;;;;;13.90;99.90;;;;;;5039089;28;20205;-71
2022/10/03 10:19:44;;;;;;;;;;;14.00;99.90;;;;;;5026764;28;20119;-71
2022/10/03 10:22:35;;;;;;;;;;;13.90;99.90;;;;;;5023823;28;19916;-71
2022/10/03 10:25:13;;;;;;;;;;;13.90;99.90;;;;;;5023064;28;19984;-70
2022/10/03 10:28:05;;;;;;;;;;;13.80;99.90;;;;;;5022212;28;20159;-70
2022/10/03 10:30:53;;;;;;;;;;;13.70;99.90;;;;;;5022238;28;19909;-70
2022/10/03 10:33:43;;;;;;;;;;;13.70;99.90;;;;;;5023623;28;19921;-70
2022/10/03 10:36:50;;;;;;;;;;;13.80;99.90;;;;;;5022457;28;20200;-70
2022/10/03 10:39:54;;;;;;;;;;;13.90;99.90;;;;;;5036419;28;20251;-71
2022/10/03 10:42:39;;;;;;;;;;;14.10;99.90;;;;;;4982420;28;20244;-71
2022/10/03 10:45:27;;;;;;;;;;;14.30;99.90;;;;;;4982401;28;19958;-71
2022/10/03 10:47:52;;;;;;;;;;;14.50;99.90;;;;;;4998048;28;19914;-71
2022/10/03 10:50:35;;;;;;;;;;;14.50;99.90;;;;;;5013019;28;19940;-71
2022/10/03 10:53:07;;;;;;;;;;;14.60;99.90;;;;;;5022276;28;19909;-71
2022/10/03 10:55:35;;;;;;;;;;;14.50;99.90;;;;;;5023314;28;19909;-71
2022/10/03 10:58:19;;;;;;;;;;;14.50;99.90;;;;;;5022970;28;19909;-71
2022/10/03 11:01:23;;;;;;;;;;;14.40;99.90;;;;;;5022806;28;19988;-71
2022/10/03 11:04:20;;;;;;;;;;;14.30;99.90;;;;;;5023185;28;19921;-71
2022/10/03 11:07:07;;;;;;;;;;;14.20;99.90;;;;;;5022801;28;19975;-71
2022/10/03 11:09:53;;;;;;;;;;;14.30;99.90;;;;;;5022583;28;19910;-71
2022/10/03 11:12:24;;;;;;;;;;;14.30;99.90;;;;;;5022873;28;19940;-71
2022/10/03 11:15:28;;;;;;;;;;;14.50;99.90;;;;;;5023028;28;19948;-71
2022/10/03 11:18:32;;;;;;;;;;;14.60;99.90;;;;;;5022567;28;19916;-71
2022/10/03 11:21:29;;;;;;;;;;;14.70;99.90;;;;;;5022135;28;19956;-71
2022/10/03 11:24:19;;;;;;;;;;;14.70;99.90;;;;;;5022945;28;19925;-71
2022/10/03 11:26:57;;;;;;;;;;;14.60;99.90;;;;;;5021563;28;20274;-71
2022/10/03 11:29:47;;;;;;;;;;;14.50;99.90;;;;;;5022915;28;19910;-70
2022/10/03 11:32:42;;;;;;;;;;;14.40;99.90;;;;;;5021934;28;19910;-70
2022/10/03 11:35:35;;;;;;;;;;;14.60;99.90;;;;;;5022697;28;19940;-71
2022/10/03 11:38:10;;;;;;;;;;;14.70;99.90;;;;;;5022646;28;19910;-71
2022/10/03 11:40:54;;;;;;;;;;;14.80;99.90;;;;;;5023113;28;19909;-70
2022/10/03 11:43:44;;;;;;;;;;;15.00;99.90;;;;;;5005917;28;19956;-71
2022/10/03 11:46:34;;;;;;;;;;;15.10;99.90;;;;;;5022901;28;19918;-71
2022/10/03 11:49:06;;;;;;;;;;;15.40;99.90;;;;;;5021847;28;19914;-70
2022/10/03 11:52:08;;;;;;;;;;;15.60;99.90;;;;;;5022867;28;19963;-70
2022/10/03 11:54:36;;;;;;;;;;;15.70;99.90;;;;;;5011505;28;19976;-70
2022/10/03 11:57:15;;;;;;;;;;;15.80;99.90;;;;;;5004745;28;20088;-70
2022/10/03 11:59:59;;;;;;;;;;;15.90;99.90;;;;;;5021488;28;20085;-70
2022/10/03 12:02:48;;;;;;;;;;;15.90;99.90;;;;;;5021759;28;19984;-70
2022/10/03 12:05:45;;;;;;;;;;;16.10;99.90;;;;;;5020844;28;19978;-70
2022/10/03 12:11:24;;;;;;;;;;;17.30;99.90;;;;;;5021746;28;19916;-71
2022/10/03 12:14:02;;;;;;;;;;;17.60;99.90;;;;;;5021314;28;19913;-71
2022/10/03 12:16:35;;;;;;;;;;;17.60;99.90;;;;;;5022168;28;19909;-71
2022/10/03 12:19:07;;;;;;;;;;;17.40;99.90;;;;;;5020976;28;19913;-70
2022/10/03 12:21:32;;;;;;;;;;;17.10;99.90;;;;;;4989595;28;19914;-71
2022/10/03 12:24:14;;;;;;;;;;;16.90;99.90;;;;;;5022801;28;19909;-70
2022/10/03 12:27:00;;;;;;;;;;;16.60;99.90;;;;;;5022292;28;20227;-70
2022/10/03 12:29:31;;;;;;;;;;;16.40;99.90;;;;;;5005315;28;19910;-70
2022/10/03 12:32:41;;;;;;;;;;;16.20;99.90;;;;;;5005662;28;20251;-70
2022/10/03 12:35:43;;;;;;;;;;;16.10;99.90;;;;;;5022302;28;19945;-71
2022/10/03 12:38:34;;;;;;;;;;;15.80;99.90;;;;;;5022866;28;19909;-70
2022/10/03 12:41:10;;;;;;;;;;;15.60;99.90;;;;;;5026304;28;19971;-71
2022/10/03 12:44:04;;;;;;;;;;;15.50;99.90;;;;;;5024961;28;19952;-71
2022/10/03 12:46:46;;;;;;;;;;;15.50;99.90;;;;;;5025394;28;20227;-70
2022/10/03 12:49:26;;;;;;;;;;;15.40;99.90;;;;;;5024728;28;19920;-71
2022/10/03 12:51:57;;;;;;;;;;;15.40;99.90;;;;;;5009155;28;19932;-70
2022/10/03 12:54:44;;;;;;;;;;;15.40;99.90;;;;;;5022509;28;19976;-75
2022/10/03 12:57:43;;;;;;;;;;;15.40;99.90;;;;;;5011053;28;19909;-77
2022/10/03 13:00:26;;;;;;;;;;;15.30;99.90;;;;;;5007586;28;19941;-82
2022/10/03 13:03:30;;;;;;;;;;;15.30;99.90;;;;;;5012578;28;20228;-81
2022/10/03 13:06:25;;;;;;;;;;;15.40;99.90;;;;;;5013024;28;19914;-83
2022/10/03 13:09:03;;;;;;;;;;;15.50;99.90;;;;;;5014260;28;19913;-82
2022/10/03 13:11:47;;;;;;;;;;;15.50;99.90;;;;;;5013025;28;20090;-82
2022/10/03 13:14:26;;;;;;;;;;;15.50;99.90;;;;;;5013692;28;19917;-81
2022/10/03 13:17:07;;;;;;;;;;;15.50;99.90;;;;;;5031811;28;19973;-82
2022/10/03 13:19:59;;;;;;;;;;;15.30;99.90;;;;;;5031181;28;19909;-82
2022/10/03 13:22:37;;;;;;;;;;;15.40;99.90;;;;;;5032438;28;19945;-81
2022/10/03 13:25:44;;;;;;;;;;;15.40;99.90;;;;;;5029849;28;20263;-82
2022/10/03 13:28:19;;;;;;;;;;;15.50;99.90;;;;;;5031348;28;19922;-82
2022/10/03 13:30:52;;;;;;;;;;;15.70;99.90;;;;;;5047301;28;19931;-81
2022/10/03 13:33:25;;;;;;;;;;;16.10;99.90;;;;;;5047708;28;19909;-82
2022/10/03 13:36:15;;;;;;;;;;;16.40;99.90;;;;;;5048354;28;19965;-81
2022/10/03 13:39:20;;;;;;;;;;;16.60;99.90;;;;;;5031439;28;19909;-82
2022/10/03 13:42:04;;;;;;;;;;;16.80;99.90;;;;;;5032148;28;19989;-82
2022/10/03 13:44:33;;;;;;;;;;;18.20;99.90;;;;;;5032926;28;19898;-82
2022/10/03 13:47:10;;;;;;;;;;;20.60;99.90;;;;;;5036593;28;19915;-83
2022/10/03 13:49:57;;;;;;;;;;;22.70;99.90;;;;;;5033781;28;19910;-83
2022/10/03 13:52:37;;;;;;;;;;;24.80;99.90;;;;;;5039447;28;19917;-78
2022/10/03 13:55:31;;;;;;;;;;;26.50;86.70;;;;;;5033949;28;20139;-81
2022/10/03 13:58:00;;;;;;;;;;;27.80;78.00;;;;;;5034030;28;19932;-82
2022/10/03 14:00:28;;;;;;;;;;;29.00;69.60;;;;;;5033224;28;19906;-83
2022/10/03 14:03:12;;;;;;;;;;;30.00;63.40;;;;;;5010849;28;20008;-75
2022/10/03 14:05:47;;;;;;;;;;;30.80;52.60;;;;;;5025269;28;19922;-77
2022/10/03 14:08:31;;;;;;;;;;;31.20;48.20;;;;;;5025797;28;19959;-78
2022/10/03 14:11:13;;;;;;;;;;;31.00;46.00;;;;;;5024058;28;19913;-77
2022/10/03 14:13:42;;;;;;;;;;;30.50;48.80;;;;;;5003787;28;19964;-76
2022/10/03 14:16:13;;;;;;;;;;;29.00;48.10;;;;;;5003005;28;20231;-77
2022/10/03 14:19:17;;;;;;;;;;;28.00;53.00;;;;;;5004361;28;20169;-76
2022/10/03 14:21:55;;;;;;;;;;;27.80;55.60;;;;;;5017540;28;19909;-76
2022/10/03 14:24:27;;;;;;;;;;;28.30;55.60;;;;;;5024308;28;19915;-75
2022/10/03 14:27:28;;;;;;;;;;;28.90;53.70;;;;;;5022139;28;19952;-75
2022/10/03 14:30:12;;;;;;;;;;;29.50;51.00;;;;;;5022547;28;19909;-77
2022/10/03 14:32:53;;;;;;;;;;;30.30;47.00;;;;;;5008650;28;19913;-77
2022/10/03 14:35:40;;;;;;;;;;;30.00;46.00;;;;;;5023362;28;19939;-76
2022/10/03 14:41:20;;;;;;;;;;;27.70;49.70;;;;;;5023544;28;19916;-76
2022/10/03 14:44:06;;;;;;;;;;;26.10;57.60;;;;;;5022447;28;20201;-75
2022/10/03 14:46:34;;;;;;;;;;;24.90;66.20;;;;;;5022463;28;19945;-75
2022/10/03 14:49:04;;;;;;;;;;;23.60;74.60;;;;;;5006570;28;20216;-76
2022/10/03 14:51:32;;;;;;;;;;;22.60;82.80;;;;;;5021493;28;19917;-75
2022/10/03 14:54:04;;;;;;;;;;;21.80;90.60;;;;;;5023725;28;19948;-77
2022/10/03 14:56:33;;;;;;;;;;;21.00;93.80;;;;;;5005845;28;19953;-78
2022/10/03 14:59:00;;;;;;;;;;;20.30;96.60;;;;;;5002289;28;19909;-77
2022/10/03 15:01:27;;;;;;;;;;;19.80;99.80;;;;;;4985741;28;20108;-76
2022/10/03 15:03:59;;;;;;;;;;;19.30;99.90;;;;;;5002480;28;19910;-77
2022/10/03 15:06:43;;;;;;;;;;;18.90;99.90;;;;;;5003083;28;19972;-77
2022/10/03 15:09:15;;;;;;;;;;;18.60;99.90;;;;;;5019174;28;19959;-77
2022/10/03 15:11:58;;;;;;;;;;;18.20;99.90;;;;;;5005871;28;20197;-77
2022/10/03 15:14:25;;;;;;;;;;;17.80;99.90;;;;;;5021912;28;20108;-77
2022/10/03 15:16:53;;;;;;;;;;;17.50;99.90;;;;;;5005307;28;19909;-77
2022/10/03 15:19:24;;;;;;;;;;;17.20;99.90;;;;;;5004633;28;20031;-77
2022/10/03 15:21:51;;;;;;;;;;;17.00;99.90;;;;;;5037519;28;19909;-77
2022/10/03 15:24:26;;;;;;;;;;;16.80;99.90;;;;;;5036939;28;19909;-77
2022/10/03 15:26:59;;;;;;;;;;;16.70;99.90;;;;;;5020969;28;19909;-77
2022/10/03 15:29:24;;;;;;;;;;;16.50;99.90;;;;;;5036662;28;19917;-77
2022/10/03 15:31:50;;;;;;;;;;;16.40;99.90;;;;;;5005527;28;19909;-77
2022/10/03 15:34:18;;;;;;;;;;;16.30;99.90;;;;;;5021489;28;19909;-77
2022/10/03 15:36:54;;;;;;;;;;;16.20;99.90;;;;;;5005266;28;19917;-79
2022/10/03 15:39:30;;;;;;;;;;;16.10;99.90;;;;;;5023197;28;19916;-79
2022/10/03 15:42:22;;;;;;;;;;;16.10;99.90;;;;;;5006225;28;20223;-80
2022/10/03 15:44:52;;;;;;;;;;;16.00;99.90;;;;;;5036644;28;19909;-79
2022/10/03 15:47:19;;;;;;;;;;;15.90;99.90;;;;;;5037386;28;20163;-80
2022/10/03 15:49:47;;;;;;;;;;;15.80;99.90;;;;;;5039810;28;19917;-80
2022/10/03 15:52:19;;;;;;;;;;;15.70;99.90;;;;;;5039899;28;20183;-80
2022/10/03 15:54:46;;;;;;;;;;;15.60;99.90;;;;;;5021845;28;20007;-79
2022/10/03 15:57:24;;;;;;;;;;;15.50;99.90;;;;;;5006612;28;19933;-79
2022/10/03 15:59:51;;;;;;;;;;;15.40;99.90;;;;;;5017626;28;19960;-79
2022/10/03 16:02:19;;;;;;;;;;;15.20;99.90;;;;;;5001463;28;19909;-79
2022/10/03 16:04:45;;;;;;;;;;;15.10;99.90;;;;;;5001674;28;19913;-78
2022/10/03 16:07:29;;;;;;;;;;;15.00;99.90;;;;;;5000718;28;19917;-79
2022/10/03 16:10:17;;;;;;;;;;;14.90;99.90;;;;;;5016137;28;19910;-79